AirNav   TITAN Aviation Fuels
 
 1083 users online  

5B9 Dean Memorial Airport
Haverhill, New Hampshire, USA

GOING TO HAVERHILL?


FAA INFORMATION EFFECTIVE 16 JUNE 2022

Location

FAA Identifier: 5B9
Lat/Long: 44-04-48.6222N 072-00-27.9357W
44-04.810370N 072-00.465595W
44.0801728,-72.0077599
(estimated)
Elevation: 581.7 ft. / 177.3 m (surveyed)
Variation: 16W (2005)
From city: 3 miles NE of HAVERHILL, NH
Time zone: UTC -4 (UTC -5 during Standard Time)
Zip code: 03774

Airport Operations

Airport use: Open to the public
Activation date: 07/1902
Control tower: no
ARTCC: BOSTON CENTER
FSS: BANGOR FLIGHT SERVICE STATION
NOTAMs facility: BGR (NOTAM-D service available)
Attendance: SATURDAY 0900-1200
Wind indicator: lighted
Segmented circle: no
Lights: ACTVT LIRL RWY 01/19 & WINDSOCK - CTAF.

Airport Communications

CTAF/UNICOM: 122.8
  • APCH/DEP SVC PRVDD BY BOSTON ARTCC ON FREQS 135.7/282.2 (MONTPELIER RCAG).

Airport Services

Fuel available: 100LL
100LL:MUST CALL IN ADVN FOR FUEL. CALL 603-809-2567 OR 603-616-1247.
Parking: tiedowns
Airframe service: NONE
Powerplant service: NONE
Bottled oxygen: NONE
Bulk oxygen: NONE

Runway Information

Runway 1/19

Dimensions: 2511 x 58 ft. / 765 x 18 m
Surface: asphalt, in fair condition
Weight bearing capacity: 
Single wheel: 8.5
Runway edge lights: low intensity
NSTD SPACING, FIRST 185 FT RWY 01 UNLGTD.
RUNWAY 1  RUNWAY 19
Latitude: 44-04.605733N44-05.015008N
Longitude: 072-00.425992W072-00.505202W
Elevation: 581.7 ft.546.0 ft.
Traffic pattern: leftleft
Runway heading: 008 magnetic, 352 true188 magnetic, 172 true
Displaced threshold: 185 ft.no
Markings: basic, in good conditionnonprecision, in good condition
Touchdown point: yes, no lightsyes, no lights
Obstructions: 15 ft. road, 200 ft. from runway, 136 ft. right of centerline
PUBLIC DIRT ROAD 5 FT FM RWY END EXTDG BOTH L & R OF CNTRLN. TREES 66 FT FM RWY END 150 FT LEFT.
35 ft. pole, lighted, 235 ft. from runway, 183 ft. left of centerline, 1:1 slope to clear
35 FT UTILITY POLE 160 FT FM RWY END 204 FT L OF CNTRLN LGTD.

Airport Ownership and Management from official FAA records

Ownership: Publicly-owned
Owner: TOWN OF HAVERHILL
2975 DARTMOUTH COLLEGE HWY
N. HAVERHILL, NH 03774
Phone 603-787-6800
DEAN MEMORIAL ARPT COMMISSION.
Manager: RALPH CROSWELL
67 TUNNEL STREAM RD
BENTON, NH 03785
Phone (603) 809-2567

Airport Operational Statistics

Aircraft based on the field: 10
Single engine airplanes: 10
    
Aircraft operations: avg 57/week *
75% local general aviation
25% transient general aviation
* for 12-month period ending 17 September 2018

Additional Remarks

FOR WINTER CONDS CALL 603-616-1247 24 HRS BFR USE.
FOR CD CTC BOSTON ARTCC AT 603-879-6859.

Instrument Procedures

NOTE: All procedures below are presented as PDF files. If you need a reader for these files, you should download the free Adobe Reader.

NOT FOR NAVIGATION. Please procure official charts for flight.
FAA instrument procedures published for use from 16 June 2022 at 0901Z to 14 July 2022 at 0900z.

 
IAPs - Instrument Approach Procedures
RNAV (GPS) RWY 19   download (255KB)
NOTE: Special Take-Off Minimums/Departure Procedures apply   download (494KB)

Other nearby airports with instrument procedures:

KMPV - Edward F Knapp State Airport (25 nm W)
KHIE - Mount Washington Regional Airport (26 nm NE)
KCDA - Caledonia County Airport (29 nm N)
KLEB - Lebanon Municipal Airport (30 nm SW)
KMVL - Morrisville-Stowe State Airport (38 nm NW)
 
Loc | Ops | Rwys | IFR | FBO | Links
Com | Nav | Svcs | Stats | Notes
Area around 5B9 (Dean Memorial Airport)
 
Road maps at: MapQuest Bing Google
 
Aerial photo
WARNING: Photo may not be current or correct
Aerial photo of 5B9 (Dean Memorial Airport)
Photo courtesy of Aerial Design Photography

Do you have a better or more recent aerial photo of Dean Memorial Airport that you would like to share? If so, please send us your photo.

 
Sectional chart

 
Airport distance calculator
Flying to Dean Memorial Airport? Find the distance to fly.

From to 5B9

Sunrise and sunset
Times for 29-Jun-2022
 Local
(UTC-4)
 Zulu
(UTC)
Morning civil twilight04:3208:32
Sunrise05:0909:09
Sunset20:3400:34
Evening civil twilight21:1101:11

Current date and time
Zulu (UTC)  30-Jun-2022 02:37:38
Local (UTC-4)  29-Jun-2022 22:37:38
 
METAR
K1V4 
20nm N 
300154Z AUTO 16/14 A3015 RMK AO1 SLP201 P0003 T01560144
K1P1 
21nm SE 
300215Z AUTO 31003KT 10SM SCT075 BKN100 19/12 A3014 RMK AO2 LTG DSNT E AND S T01880121
KMPV 
25nm W 
300151Z AUTO 00000KT 10SM OVC065 17/13 A3021 RMK AO2 RAE0059 SLP227 P0000 T01670133
KHIE 
26nm NE 
300152Z AUTO 10003KT 10SM -RA SCT070 OVC090 14/13 A3019 RMK AO2 RAB0053 SLP221 P0006 T01440133
KCDA 
29nm N 
300215Z AUTO 00000KT 10SM CLR 14/13 A3018 RMK AO2 T01400131
KLEB 
30nm SW 
300153Z 04003KT 10SM BKN095 BKN120 21/10 A3015 RMK AO2 LTG DSNT E SLP201 T02060100
KMWN 
33nm E 
300151Z 28029KT 1/16SM -RA FG VV000 05/05 RMK RAB10
KMVL 
36nm NW 
300154Z AUTO 00000KT 10SM OVC075 16/14 A3016 RMK AO2 RAE01 SLP214 P0000 T01560144
KLCI 
40nm SE 
300156Z AUTO 24011KT 10SM -RA FEW070 BKN090 OVC110 22/12 A3014 RMK AO2 LTG DSNT N AND NW RAB56 SLP205 P0000 T02170117
TAF
KMPV 
25nm W 
291728Z 2918/3018 23008G17KT P6SM FEW120 FM292200 25008KT P6SM VCSH BKN090 FM300300 VRB04KT P6SM SCT070 FM300800 00000KT P6SM BKN018 FM300900 34003KT P6SM VCSH SCT009 BKN012
KHIE 
26nm NE 
300054Z 3001/3024 VRB03KT P6SM FEW070 TEMPO 3001/3002 4SM -SHRA BKN070 OVC100 FM300200 00000KT P6SM SCT100 FM301400 31006KT P6SM SCT250
KLEB 
30nm SW 
300053Z 3001/3024 17004KT P6SM FEW050 BKN100 FM300200 00000KT P6SM SCT100 FM301300 33005KT P6SM SCT250
NOTAMs
Click for the latest NOTAMs
NOTAMs are issued by the DoD/FAA and will open in a separate window not controlled by AirNav.

 

 
 

FBO, Fuel Providers, and Aircraft Ground Support

  
 Business Name 
 
 Contact 
 
 Services / Description 
 
Fuel Prices
 
Comments
  
Dean Memorial Airport 603-738-4158
no information available

If you are affiliated with Dean Memorial Airport and would like to show here your services, contact info, web link, logo, and more, click here
100LL
AS $5.95 
 Updated 19-May-2022
 
   write
AS=Assisted/Self Service
Update Fuel Prices
 

Would you like to see your business listed on this page?

 If your business provides an interesting product or service to pilots, flight crews, aircraft, or users of the Dean Memorial Airport, you should consider listing it here.  To start the listing process, click on the button below
 
Add a business
 

Other Pages about Dean Memorial Airport

www.haverhill-nh.com/index.asp?SEC=2E4CB1B4-EC8A-4673-8079-2C23DD1DFB53&Type=B_BASIC
 
Update a link
 
Copyright © AirNav, LLC. All rights reserved. Privacy Policy  Contact